Airfield :
LOGIN :

Register | Disclaimer

   EN    FR    IT 

 










Legend :    VFR   Marginal VFR   IFR   Intensive IFR   Very Intensive IFR
Visi :
Ceiling :
>= 8 km
>= 3000ft
5 to 8 km
1000 to 3000 ft
1500m to 5 km
500 to 1000 ft
800 to 1500m
200 to 500 ft
< 800m
< 200 ft
Symbols :   Thunderstorms  Fog  Heavy snow  Heavy precipitations  Wind > 20 kt
SIGMETs :     Misc.  Thunderstorms  Icing  Turbulence  Mountain Waves  Volcanic Ashes







- Airport Elevation : 2945 ft
- IATA code : RGS


LEBG - Burgos

CURRENT METAR :
  • 241730Z 06010KT 9999 FEW050TCU 07/M02 Q1013

EXPIRED METARs :
  • 241700Z 07011KT 040V110 9999 FEW048TCU 08/M03 Q1013
  • 241630Z 06010KT 020V100 9999 FEW048TCU 08/M03 Q1013
  • 241600Z 05009KT 9999 FEW045TCU 07/M03 Q1013
  • 241530Z 06010KT 020V100 9999 BKN045 08/M02 Q1013
  • 241500Z 02009KT 330V060 9999 BKN045 08/M03 Q1012

TAF TAF LEBG
Valid from the 24 at 18:00 until the 25 at 03:00 UTC


241700Z 2418/2503 08010KT 9999 SCT040
No reported NOTAMs for that airfield.



MET'MAP, your aeronautical weather chart ! - Copyright ORBIFLY December 2007 - Disclaimer

ORBIFLY MET'MAP TEAM :

Programming & Development : Alexandra Zaïnal
Concept & Development : Baudouin d'Aumeries
Co-Development & Prog : Marc-Olivier Méhu
Technical & hardware support : Manuel Goepfert

Contact : metmap@orbifly.com




SOURCES & CREDITS :

   NOAA